sensor_id;sensor_type;location;lat;lon;timestamp;pressure;altitude;pressure_sealevel;temperature;humidity
50854;BME280;44154;45.506;-122.806;2023-03-21T00:01:38;100056.34;;;25.31;33.19
50854;BME280;44154;45.506;-122.806;2023-03-21T00:04:05;100057.47;;;25.24;33.21
50854;BME280;44154;45.506;-122.806;2023-03-21T00:06:31;100047.34;;;25.20;33.23
50854;BME280;44154;45.506;-122.806;2023-03-21T00:08:57;100030.66;;;25.01;33.36
50854;BME280;44154;45.506;-122.806;2023-03-21T00:11:23;100054.19;;;25.12;33.21
50854;BME280;44154;45.506;-122.806;2023-03-21T00:13:49;100049.81;;;25.06;33.45
50854;BME280;44154;45.506;-122.806;2023-03-21T00:16:18;100040.53;;;24.91;33.59
50854;BME280;44154;45.506;-122.806;2023-03-21T00:18:46;100052.28;;;24.97;33.71
50854;BME280;44154;45.506;-122.806;2023-03-21T00:21:15;100054.22;;;24.91;33.65
50854;BME280;44154;45.506;-122.806;2023-03-21T00:23:43;100057.50;;;24.83;33.92
50854;BME280;44154;45.506;-122.806;2023-03-21T00:26:09;100055.59;;;24.94;33.70
50854;BME280;44154;45.506;-122.806;2023-03-21T00:28:36;100053.91;;;25.14;33.59
50854;BME280;44154;45.506;-122.806;2023-03-21T00:31:04;100049.75;;;25.47;33.19
50854;BME280;44154;45.506;-122.806;2023-03-21T00:33:31;100056.47;;;25.75;32.99
50854;BME280;44154;45.506;-122.806;2023-03-21T00:35:57;100053.69;;;25.91;32.54
50854;BME280;44154;45.506;-122.806;2023-03-21T00:38:23;100053.38;;;25.97;32.46
50854;BME280;44154;45.506;-122.806;2023-03-21T00:40:50;100059.44;;;25.94;32.23
50854;BME280;44154;45.506;-122.806;2023-03-21T00:43:17;100052.59;;;25.87;32.10
50854;BME280;44154;45.506;-122.806;2023-03-21T00:45:45;100042.81;;;25.70;32.32
50854;BME280;44154;45.506;-122.806;2023-03-21T00:48:12;100055.69;;;25.75;32.86
50854;BME280;44154;45.506;-122.806;2023-03-21T00:50:38;100047.78;;;25.63;32.79
50854;BME280;44154;45.506;-122.806;2023-03-21T00:53:06;100041.75;;;25.66;33.00
50854;BME280;44154;45.506;-122.806;2023-03-21T00:55:32;100049.72;;;25.57;33.18
50854;BME280;44154;45.506;-122.806;2023-03-21T00:57:58;100050.28;;;25.49;33.34
50854;BME280;44154;45.506;-122.806;2023-03-21T01:00:25;100057.72;;;25.38;33.51
50854;BME280;44154;45.506;-122.806;2023-03-21T01:02:52;100056.66;;;25.34;33.40
50854;BME280;44154;45.506;-122.806;2023-03-21T01:05:27;100051.16;;;25.24;33.69
50854;BME280;44154;45.506;-122.806;2023-03-21T01:08:13;100052.53;;;25.21;33.63
50854;BME280;44154;45.506;-122.806;2023-03-21T01:10:42;100051.16;;;25.19;33.66
50854;BME280;44154;45.506;-122.806;2023-03-21T01:13:09;100050.88;;;25.20;33.57
50854;BME280;44154;45.506;-122.806;2023-03-21T01:15:37;100052.53;;;25.21;33.48
50854;BME280;44154;45.506;-122.806;2023-03-21T01:18:07;100045.94;;;25.27;33.39
50854;BME280;44154;45.506;-122.806;2023-03-21T01:20:33;100056.84;;;25.48;33.26
50854;BME280;44154;45.506;-122.806;2023-03-21T01:23:00;100052.13;;;25.74;33.05
50854;BME280;44154;45.506;-122.806;2023-03-21T01:25:26;100056.09;;;26.03;32.51
50854;BME280;44154;45.506;-122.806;2023-03-21T01:27:52;100049.47;;;26.14;32.08
50854;BME280;44154;45.506;-122.806;2023-03-21T01:30:19;100052.78;;;26.11;32.44
50854;BME280;44154;45.506;-122.806;2023-03-21T01:32:46;100058.84;;;26.08;32.31
50854;BME280;44154;45.506;-122.806;2023-03-21T01:35:12;100062.97;;;26.00;32.55
50854;BME280;44154;45.506;-122.806;2023-03-21T01:37:38;100076.69;;;25.95;32.61
50854;BME280;44154;45.506;-122.806;2023-03-21T01:40:06;100066.84;;;25.89;33.30
50854;BME280;44154;45.506;-122.806;2023-03-21T01:42:38;100068.75;;;25.88;33.48
50854;BME280;44154;45.506;-122.806;2023-03-21T01:46:05;100077.28;;;25.87;33.72
50854;BME280;44154;45.506;-122.806;2023-03-21T01:47:52;100056.44;;;25.86;34.12
50854;BME280;44154;45.506;-122.806;2023-03-21T01:50:19;100070.97;;;25.86;34.77
50854;BME280;44154;45.506;-122.806;2023-03-21T01:52:47;100073.97;;;25.90;34.06
50854;BME280;44154;45.506;-122.806;2023-03-21T01:55:16;100069.88;;;25.87;34.53
50854;BME280;44154;45.506;-122.806;2023-03-21T01:57:50;100074.53;;;25.87;34.28
50854;BME280;44154;45.506;-122.806;2023-03-21T02:00:20;100077.03;;;25.83;34.70
50854;BME280;44154;45.506;-122.806;2023-03-21T02:02:49;100055.16;;;25.68;34.91
50854;BME280;44154;45.506;-122.806;2023-03-21T02:05:20;100074.88;;;25.75;35.01
50854;BME280;44154;45.506;-122.806;2023-03-21T02:07:48;100084.72;;;25.76;35.14
50854;BME280;44154;45.506;-122.806;2023-03-21T02:10:17;100088.03;;;25.73;35.45
50854;BME280;44154;45.506;-122.806;2023-03-21T02:12:43;100084.78;;;25.66;35.40
50854;BME280;44154;45.506;-122.806;2023-03-21T02:15:10;100087.50;;;25.66;35.50
50854;BME280;44154;45.506;-122.806;2023-03-21T02:17:51;100094.66;;;25.61;35.78
50854;BME280;44154;45.506;-122.806;2023-03-21T02:28:51;100117.13;;;25.48;35.76
50854;BME280;44154;45.506;-122.806;2023-03-21T02:31:34;100108.91;;;25.48;36.37
50854;BME280;44154;45.506;-122.806;2023-03-21T02:34:32;100108.84;;;25.79;35.90
50854;BME280;44154;45.506;-122.806;2023-03-21T02:37:33;100113.69;;;25.97;35.44
50854;BME280;44154;45.506;-122.806;2023-03-21T02:40:10;100113.13;;;25.95;37.68
50854;BME280;44154;45.506;-122.806;2023-03-21T02:42:50;100118.84;;;26.14;36.49
50854;BME280;44154;45.506;-122.806;2023-03-21T02:45:20;100116.25;;;26.39;35.60
50854;BME280;44154;45.506;-122.806;2023-03-21T02:47:52;100127.06;;;26.64;35.43
50854;BME280;44154;45.506;-122.806;2023-03-21T02:50:26;100129.22;;;26.73;35.48
50854;BME280;44154;45.506;-122.806;2023-03-21T02:52:57;100127.28;;;26.73;35.34
50854;BME280;44154;45.506;-122.806;2023-03-21T02:55:27;100133.13;;;26.61;35.45
50854;BME280;44154;45.506;-122.806;2023-03-21T02:57:57;100128.50;;;26.52;34.95
50854;BME280;44154;45.506;-122.806;2023-03-21T03:00:29;100119.81;;;26.39;35.18
50854;BME280;44154;45.506;-122.806;2023-03-21T03:02:56;100134.63;;;26.38;35.73
50854;BME280;44154;45.506;-122.806;2023-03-21T03:05:26;100144.31;;;26.25;36.33
50854;BME280;44154;45.506;-122.806;2023-03-21T03:08:02;100143.28;;;26.06;35.58
50854;BME280;44154;45.506;-122.806;2023-03-21T03:14:10;100152.25;;;26.27;36.02
50854;BME280;44154;45.506;-122.806;2023-03-21T03:19:35;100086.63;;;25.80;35.10
50854;BME280;44154;45.506;-122.806;2023-03-21T03:22:14;100157.78;;;26.17;35.22
50854;BME280;44154;45.506;-122.806;2023-03-21T03:24:48;100166.06;;;26.01;35.80
50854;BME280;44154;45.506;-122.806;2023-03-21T03:27:26;100169.34;;;25.98;35.75
50854;BME280;44154;45.506;-122.806;2023-03-21T03:29:59;100172.66;;;25.90;35.99
50854;BME280;44154;45.506;-122.806;2023-03-21T03:32:35;100166.91;;;25.86;35.92
50854;BME280;44154;45.506;-122.806;2023-03-21T03:35:04;100173.25;;;25.82;36.02
50854;BME280;44154;45.506;-122.806;2023-03-21T03:37:33;100160.91;;;25.74;35.92
50854;BME280;44154;45.506;-122.806;2023-03-21T03:40:12;100172.13;;;25.83;35.63
50854;BME280;44154;45.506;-122.806;2023-03-21T03:42:50;100171.91;;;25.69;36.00
50854;BME280;44154;45.506;-122.806;2023-03-21T03:45:17;100186.44;;;25.74;35.93
50854;BME280;44154;45.506;-122.806;2023-03-21T03:48:13;100186.69;;;25.68;36.05
50854;BME280;44154;45.506;-122.806;2023-03-21T03:50:53;100189.72;;;25.66;36.09
50854;BME280;44154;45.506;-122.806;2023-03-21T03:53:31;100189.16;;;25.64;35.76
50854;BME280;44154;45.506;-122.806;2023-03-21T03:56:00;100198.22;;;25.65;35.97
50854;BME280;44154;45.506;-122.806;2023-03-21T03:58:28;100196.56;;;25.63;35.97
50854;BME280;44154;45.506;-122.806;2023-03-21T04:00:56;100195.75;;;25.63;35.67
50854;BME280;44154;45.506;-122.806;2023-03-21T04:03:22;100187.28;;;25.54;35.55
50854;BME280;44154;45.506;-122.806;2023-03-21T04:05:48;100198.22;;;25.65;35.34
50854;BME280;44154;45.506;-122.806;2023-03-21T04:08:15;100202.06;;;25.63;35.55
50854;BME280;44154;45.506;-122.806;2023-03-21T04:10:42;100188.94;;;25.50;35.48
50854;BME280;44154;45.506;-122.806;2023-03-21T04:13:09;100206.19;;;25.56;35.36
50854;BME280;44154;45.506;-122.806;2023-03-21T04:15:36;100209.75;;;25.56;35.23
50854;BME280;44154;45.506;-122.806;2023-03-21T04:18:02;100206.47;;;25.54;35.19
50854;BME280;44154;45.506;-122.806;2023-03-21T04:20:29;100197.13;;;25.45;35.00
50854;BME280;44154;45.506;-122.806;2023-03-21T04:22:55;100210.81;;;25.55;35.15
50854;BME280;44154;45.506;-122.806;2023-03-21T04:25:21;100204.81;;;25.48;34.96
50854;BME280;44154;45.506;-122.806;2023-03-21T04:27:48;100216.59;;;25.54;34.88
50854;BME280;44154;45.506;-122.806;2023-03-21T04:30:15;100215.25;;;25.51;34.94
50854;BME280;44154;45.506;-122.806;2023-03-21T04:32:41;100217.41;;;25.49;35.11
50854;BME280;44154;45.506;-122.806;2023-03-21T04:35:09;100215.75;;;25.48;35.05
50854;BME280;44154;45.506;-122.806;2023-03-21T04:37:36;100220.44;;;25.48;34.85
50854;BME280;44154;45.506;-122.806;2023-03-21T04:40:04;100195.78;;;25.32;34.80
50854;BME280;44154;45.506;-122.806;2023-03-21T04:42:33;100208.94;;;25.40;34.75
50854;BME280;44154;45.506;-122.806;2023-03-21T04:45:00;100194.09;;;25.21;35.45
50854;BME280;44154;45.506;-122.806;2023-03-21T04:47:27;100216.59;;;25.33;35.50
50854;BME280;44154;45.506;-122.806;2023-03-21T04:49:53;100216.84;;;25.52;35.21
50854;BME280;44154;45.506;-122.806;2023-03-21T04:52:19;100218.78;;;25.67;34.90
50854;BME280;44154;45.506;-122.806;2023-03-21T04:54:45;100219.28;;;25.79;34.42
50854;BME280;44154;45.506;-122.806;2023-03-21T04:57:11;100209.69;;;25.77;34.32
50854;BME280;44154;45.506;-122.806;2023-03-21T04:59:38;100217.38;;;25.80;34.06
50854;BME280;44154;45.506;-122.806;2023-03-21T05:02:04;100208.88;;;25.76;33.89
50854;BME280;44154;45.506;-122.806;2023-03-21T05:04:30;100205.88;;;25.62;34.09
50854;BME280;44154;45.506;-122.806;2023-03-21T05:06:57;100214.38;;;25.66;34.23
50854;BME280;44154;45.506;-122.806;2023-03-21T05:09:23;100219.59;;;25.62;34.18
50854;BME280;44154;45.506;-122.806;2023-03-21T05:11:50;100223.72;;;25.60;34.16
50854;BME280;44154;45.506;-122.806;2023-03-21T05:14:19;100216.31;;;25.55;34.12
50854;BME280;44154;45.506;-122.806;2023-03-21T05:16:45;100218.50;;;25.53;34.08
50854;BME280;44154;45.506;-122.806;2023-03-21T05:19:19;100223.72;;;25.50;34.20
50854;BME280;44154;45.506;-122.806;2023-03-21T05:21:47;100214.16;;;25.47;34.24
50854;BME280;44154;45.506;-122.806;2023-03-21T05:24:16;100225.09;;;25.47;34.11
50854;BME280;44154;45.506;-122.806;2023-03-21T05:26:43;100221.78;;;25.45;34.14
50854;BME280;44154;45.506;-122.806;2023-03-21T05:29:16;100222.06;;;25.43;34.29
50854;BME280;44154;45.506;-122.806;2023-03-21T05:31:43;100211.91;;;25.28;34.39
50854;BME280;44154;45.506;-122.806;2023-03-21T05:34:10;100225.38;;;25.40;34.66
50854;BME280;44154;45.506;-122.806;2023-03-21T05:36:36;100225.91;;;25.42;34.62
50854;BME280;44154;45.506;-122.806;2023-03-21T05:39:03;100220.97;;;25.55;34.67
50854;BME280;44154;45.506;-122.806;2023-03-21T05:41:30;100231.38;;;25.73;34.05
50854;BME280;44154;45.506;-122.806;2023-03-21T05:43:56;100227.22;;;25.86;33.57
50854;BME280;44154;45.506;-122.806;2023-03-21T05:46:22;100225.88;;;25.89;33.43
50854;BME280;44154;45.506;-122.806;2023-03-21T05:48:48;100229.13;;;25.91;33.26
50854;BME280;44154;45.506;-122.806;2023-03-21T05:51:14;100228.88;;;25.87;33.43
50854;BME280;44154;45.506;-122.806;2023-03-21T05:53:41;100238.75;;;25.83;33.78
50854;BME280;44154;45.506;-122.806;2023-03-21T05:56:07;100239.84;;;25.82;33.53
50854;BME280;44154;45.506;-122.806;2023-03-21T05:58:33;100239.31;;;25.75;34.34
50854;BME280;44154;45.506;-122.806;2023-03-21T06:01:00;100237.66;;;25.74;34.29
50854;BME280;44154;45.506;-122.806;2023-03-21T06:03:26;100240.41;;;25.74;34.34
50854;BME280;44154;45.506;-122.806;2023-03-21T06:05:52;100240.41;;;25.74;34.42
50854;BME280;44154;45.506;-122.806;2023-03-21T06:08:18;100243.97;;;25.74;34.55
50854;BME280;44154;45.506;-122.806;2023-03-21T06:10:44;100242.03;;;25.70;34.50
50854;BME280;44154;45.506;-122.806;2023-03-21T06:13:10;100244.25;;;25.68;34.69
50854;BME280;44154;45.506;-122.806;2023-03-21T06:15:37;100241.50;;;25.62;34.56
50854;BME280;44154;45.506;-122.806;2023-03-21T06:18:03;100240.69;;;25.57;34.88
50854;BME280;44154;45.506;-122.806;2023-03-21T06:20:30;100247.56;;;25.54;35.01
50854;BME280;44154;45.506;-122.806;2023-03-21T06:22:56;100240.41;;;25.48;35.12
50854;BME280;44154;45.506;-122.806;2023-03-21T06:25:22;100244.25;;;25.52;35.51
50854;BME280;44154;45.506;-122.806;2023-03-21T06:27:48;100252.75;;;25.51;35.34
50854;BME280;44154;45.506;-122.806;2023-03-21T06:30:15;100252.22;;;25.49;35.20
50854;BME280;44154;45.506;-122.806;2023-03-21T06:32:43;100253.31;;;25.48;35.15
50854;BME280;44154;45.506;-122.806;2023-03-21T06:35:09;100257.97;;;25.42;35.03
50854;BME280;44154;45.506;-122.806;2023-03-21T06:37:35;100259.06;;;25.36;35.17
50854;BME280;44154;45.506;-122.806;2023-03-21T06:40:03;100260.69;;;25.32;35.09
50854;BME280;44154;45.506;-122.806;2023-03-21T06:42:30;100258.75;;;25.27;35.00
50854;BME280;44154;45.506;-122.806;2023-03-21T06:44:57;100251.88;;;25.19;35.15
50854;BME280;44154;45.506;-122.806;2023-03-21T06:47:23;100246.44;;;25.24;36.08
50854;BME280;44154;45.506;-122.806;2023-03-21T06:49:49;100257.69;;;25.43;36.09
50854;BME280;44154;45.506;-122.806;2023-03-21T06:52:16;100255.50;;;25.56;36.08
50854;BME280;44154;45.506;-122.806;2023-03-21T06:54:42;100240.97;;;25.71;36.33
50854;BME280;44154;45.506;-122.806;2023-03-21T06:57:08;100260.94;;;25.87;36.41
50854;BME280;44154;45.506;-122.806;2023-03-21T06:59:34;100208.38;;;25.54;37.91
50854;BME280;44154;45.506;-122.806;2023-03-21T07:02:01;100249.19;;;25.76;37.55
50854;BME280;44154;45.506;-122.806;2023-03-21T07:04:27;100250.81;;;25.67;37.80
50854;BME280;44154;45.506;-122.806;2023-03-21T07:06:53;100258.53;;;25.54;36.94
50854;BME280;44154;45.506;-122.806;2023-03-21T07:09:20;100247.00;;;25.42;36.74
50854;BME280;44154;45.506;-122.806;2023-03-21T07:11:49;100240.94;;;25.24;36.66
50854;BME280;44154;45.506;-122.806;2023-03-21T07:14:18;100193.81;;;24.86;36.51
50854;BME280;44154;45.506;-122.806;2023-03-21T07:16:44;100244.25;;;25.21;36.46
50854;BME280;44154;45.506;-122.806;2023-03-21T07:19:10;100243.94;;;25.18;36.35
50854;BME280;44154;45.506;-122.806;2023-03-21T07:21:36;100227.25;;;25.04;36.60
50854;BME280;44154;45.506;-122.806;2023-03-21T07:24:02;100228.31;;;24.98;36.28
50854;BME280;44154;45.506;-122.806;2023-03-21T07:26:29;100228.31;;;24.98;36.58
50854;BME280;44154;45.506;-122.806;2023-03-21T07:28:55;100205.59;;;24.87;37.49
50854;BME280;44154;45.506;-122.806;2023-03-21T07:31:21;100223.09;;;24.96;36.46
50854;BME280;44154;45.506;-122.806;2023-03-21T07:33:50;100216.56;;;24.97;36.04
50854;BME280;44154;45.506;-122.806;2023-03-21T07:36:16;100213.53;;;24.99;35.99
50854;BME280;44154;45.506;-122.806;2023-03-21T07:38:43;100206.41;;;24.87;36.00
50854;BME280;44154;45.506;-122.806;2023-03-21T07:41:11;100213.50;;;24.78;36.23
50854;BME280;44154;45.506;-122.806;2023-03-21T07:43:37;100208.03;;;24.68;35.81
50854;BME280;44154;45.506;-122.806;2023-03-21T07:46:03;100201.13;;;24.60;35.72
50854;BME280;44154;45.506;-122.806;2023-03-21T07:48:30;100205.22;;;24.52;35.84
50854;BME280;44154;45.506;-122.806;2023-03-21T07:50:56;100207.38;;;24.45;35.90
50854;BME280;44154;45.506;-122.806;2023-03-21T07:53:22;100207.59;;;24.38;35.83
50854;BME280;44154;45.506;-122.806;2023-03-21T07:55:50;100199.13;;;24.35;35.88
50854;BME280;44154;45.506;-122.806;2023-03-21T07:58:17;100207.59;;;24.33;35.62
50854;BME280;44154;45.506;-122.806;2023-03-21T08:00:43;100187.88;;;24.26;36.49
50854;BME280;44154;45.506;-122.806;2023-03-21T08:03:10;100149.25;;;24.07;35.80
50854;BME280;44154;45.506;-122.806;2023-03-21T08:05:37;100188.72;;;24.32;35.74
50854;BME280;44154;45.506;-122.806;2023-03-21T08:08:04;100186.25;;;24.25;36.33
50854;BME280;44154;45.506;-122.806;2023-03-21T08:10:31;100195.56;;;24.29;36.30
50854;BME280;44154;45.506;-122.806;2023-03-21T08:12:57;100195.00;;;24.32;36.42
50854;BME280;44154;45.506;-122.806;2023-03-21T08:15:23;100201.88;;;24.40;36.57
50854;BME280;44154;45.506;-122.806;2023-03-21T08:17:50;100200.28;;;24.54;38.91
50854;BME280;44154;45.506;-122.806;2023-03-21T08:20:18;100199.50;;;24.59;38.39
50854;BME280;44154;45.506;-122.806;2023-03-21T08:22:47;100201.47;;;24.84;38.26
50854;BME280;44154;45.506;-122.806;2023-03-21T08:25:15;100201.50;;;25.00;36.26
50854;BME280;44154;45.506;-122.806;2023-03-21T08:27:43;100201.22;;;25.01;35.63
50854;BME280;44154;45.506;-122.806;2023-03-21T08:30:12;100199.31;;;24.97;35.25
50854;BME280;44154;45.506;-122.806;2023-03-21T08:32:39;100194.09;;;24.90;35.46
50854;BME280;44154;45.506;-122.806;2023-03-21T08:35:08;100194.34;;;24.83;35.66
50854;BME280;44154;45.506;-122.806;2023-03-21T08:37:40;100199.81;;;24.73;35.88
50854;BME280;44154;45.506;-122.806;2023-03-21T08:40:12;100194.03;;;24.64;36.06
50854;BME280;44154;45.506;-122.806;2023-03-21T08:42:41;100184.41;;;24.51;36.38
50854;BME280;44154;45.506;-122.806;2023-03-21T08:45:08;100192.03;;;24.44;36.23
50854;BME280;44154;45.506;-122.806;2023-03-21T08:47:34;100193.94;;;24.38;36.37
50854;BME280;44154;45.506;-122.806;2023-03-21T08:50:01;100194.19;;;24.32;36.56
50854;BME280;44154;45.506;-122.806;2023-03-21T08:52:28;100187.59;;;24.22;36.50
50854;BME280;44154;45.506;-122.806;2023-03-21T08:54:54;100195.78;;;24.22;36.44
50854;BME280;44154;45.506;-122.806;2023-03-21T08:57:21;100198.25;;;24.19;36.60
50854;BME280;44154;45.506;-122.806;2023-03-21T08:59:47;100206.25;;;24.41;37.45
50854;BME280;44154;45.506;-122.806;2023-03-21T09:02:14;100201.09;;;24.45;37.50
50854;BME280;44154;45.506;-122.806;2023-03-21T09:04:41;100210.47;;;24.64;37.21
50854;BME280;44154;45.506;-122.806;2023-03-21T09:07:09;100203.13;;;24.96;38.37
50854;BME280;44154;45.506;-122.806;2023-03-21T09:09:37;100203.72;;;25.08;37.21
50854;BME280;44154;45.506;-122.806;2023-03-21T09:12:04;100207.00;;;25.15;37.42
50854;BME280;44154;45.506;-122.806;2023-03-21T09:14:30;100200.41;;;25.06;38.17
50854;BME280;44154;45.506;-122.806;2023-03-21T09:16:57;100201.78;;;24.98;37.98
50854;BME280;44154;45.506;-122.806;2023-03-21T09:19:23;100203.38;;;24.89;38.35
50854;BME280;44154;45.506;-122.806;2023-03-21T09:21:50;100210.22;;;24.76;37.97
50854;BME280;44154;45.506;-122.806;2023-03-21T09:24:18;100207.75;;;24.69;37.59
50854;BME280;44154;45.506;-122.806;2023-03-21T09:26:45;100207.94;;;24.57;36.83
50854;BME280;44154;45.506;-122.806;2023-03-21T09:29:14;100199.97;;;24.46;36.18
50854;BME280;44154;45.506;-122.806;2023-03-21T09:31:41;100183.22;;;24.27;36.38
50854;BME280;44154;45.506;-122.806;2023-03-21T09:34:08;100189.25;;;24.23;36.39
50854;BME280;44154;45.506;-122.806;2023-03-21T09:36:34;100190.59;;;24.16;36.44
50854;BME280;44154;45.506;-122.806;2023-03-21T09:39:02;100195.47;;;24.09;36.40
50854;BME280;44154;45.506;-122.806;2023-03-21T09:44:18;100194.19;;;24.37;37.64
50854;BME280;44154;45.506;-122.806;2023-03-21T09:49:52;100191.09;;;24.91;37.15
50854;BME280;44154;45.506;-122.806;2023-03-21T09:52:28;100183.97;;;25.01;38.03
50854;BME280;44154;45.506;-122.806;2023-03-21T09:54:57;100190.28;;;24.91;37.73
50854;BME280;44154;45.506;-122.806;2023-03-21T09:57:34;100189.69;;;24.79;37.50
50854;BME280;44154;45.506;-122.806;2023-03-21T10:00:09;100187.75;;;24.69;37.60
50854;BME280;44154;45.506;-122.806;2023-03-21T10:02:45;100182.28;;;24.64;37.11
50854;BME280;44154;45.506;-122.806;2023-03-21T10:05:22;100158.94;;;24.40;37.28
50854;BME280;44154;45.506;-122.806;2023-03-21T10:10:26;100176.91;;;24.21;37.98
50854;BME280;44154;45.506;-122.806;2023-03-21T10:12:54;100164.88;;;24.12;37.41
50854;BME280;44154;45.506;-122.806;2023-03-21T10:15:24;100164.03;;;24.06;37.09
50854;BME280;44154;45.506;-122.806;2023-03-21T10:18:00;100165.19;;;24.31;37.53
50854;BME280;44154;45.506;-122.806;2023-03-21T10:20:35;100177.81;;;24.42;37.07
50854;BME280;44154;45.506;-122.806;2023-03-21T10:23:09;100146.94;;;24.57;36.51
50854;BME280;44154;45.506;-122.806;2023-03-21T10:26:10;100160.41;;;24.94;36.09
50854;BME280;44154;45.506;-122.806;2023-03-21T10:28:34;100158.50;;;25.00;36.52
50854;BME280;44154;45.506;-122.806;2023-03-21T10:31:05;100153.84;;;24.90;36.71
50854;BME280;44154;45.506;-122.806;2023-03-21T10:33:42;100131.34;;;24.57;36.85
50854;BME280;44154;45.506;-122.806;2023-03-21T10:36:15;100145.88;;;24.63;36.47
50854;BME280;44154;45.506;-122.806;2023-03-21T10:38:46;100146.09;;;24.51;36.73
50854;BME280;44154;45.506;-122.806;2023-03-21T10:41:14;100147.44;;;24.38;36.89
50854;BME280;44154;45.506;-122.806;2023-03-21T10:43:42;100142.75;;;24.23;37.33
50854;BME280;44154;45.506;-122.806;2023-03-21T10:46:17;100140.81;;;24.14;37.15
50854;BME280;44154;45.506;-122.806;2023-03-21T10:48:50;100143.22;;;24.05;36.87
50854;BME280;44154;45.506;-122.806;2023-03-21T10:51:20;100131.50;;;24.10;37.04
50854;BME280;44154;45.506;-122.806;2023-03-21T10:53:58;100136.78;;;24.32;36.79
50854;BME280;44154;45.506;-122.806;2023-03-21T10:56:28;100097.94;;;24.35;36.30
50854;BME280;44154;45.506;-122.806;2023-03-21T10:58:59;100128.38;;;24.85;35.62
50854;BME280;44154;45.506;-122.806;2023-03-21T11:01:40;100105.97;;;24.83;35.60
50854;BME280;44154;45.506;-122.806;2023-03-21T11:04:23;100122.13;;;24.89;36.18
50854;BME280;44154;45.506;-122.806;2023-03-21T11:06:59;100107.88;;;24.67;36.22
50854;BME280;44154;45.506;-122.806;2023-03-21T11:09:48;100112.78;;;24.59;35.97
50854;BME280;44154;45.506;-122.806;2023-03-21T11:12:17;100120.13;;;24.54;36.17
50854;BME280;44154;45.506;-122.806;2023-03-21T11:14:48;100111.59;;;24.30;36.13
50854;BME280;44154;45.506;-122.806;2023-03-21T11:19:50;100117.84;;;24.15;36.26
50854;BME280;44154;45.506;-122.806;2023-03-21T11:22:20;100111.81;;;24.07;36.08
50854;BME280;44154;45.506;-122.806;2023-03-21T11:25:01;100089.94;;;24.07;36.03
50854;BME280;44154;45.506;-122.806;2023-03-21T11:27:28;100101.78;;;24.44;35.91
50854;BME280;44154;45.506;-122.806;2023-03-21T11:29:56;100097.19;;;24.65;35.53
50854;BME280;44154;45.506;-122.806;2023-03-21T11:32:35;100100.47;;;24.98;35.21
50854;BME280;44154;45.506;-122.806;2023-03-21T11:35:13;100094.44;;;25.06;34.84
50854;BME280;44154;45.506;-122.806;2023-03-21T11:37:43;100088.16;;;24.96;34.91
50854;BME280;44154;45.506;-122.806;2023-03-21T11:40:31;100104.56;;;24.90;34.87
50854;BME280;44154;45.506;-122.806;2023-03-21T11:43:00;100099.38;;;24.79;34.83
50854;BME280;44154;45.506;-122.806;2023-03-21T11:45:32;100082.94;;;24.58;34.85
50854;BME280;44154;45.506;-122.806;2023-03-21T11:48:00;100088.13;;;24.49;34.91
50854;BME280;44154;45.506;-122.806;2023-03-21T11:50:31;100086.47;;;24.38;34.81
50854;BME280;44154;45.506;-122.806;2023-03-21T11:53:36;100088.63;;;24.31;35.05
50854;BME280;44154;45.506;-122.806;2023-03-21T11:56:26;100070.03;;;24.28;35.22
50854;BME280;44154;45.506;-122.806;2023-03-21T11:59:19;100076.59;;;24.37;35.76
50854;BME280;44154;45.506;-122.806;2023-03-21T12:04:45;100067.09;;;24.86;34.70
50854;BME280;44154;45.506;-122.806;2023-03-21T12:15:30;100063.53;;;24.70;34.51
50854;BME280;44154;45.506;-122.806;2023-03-21T12:18:37;100065.66;;;24.57;34.78
50854;BME280;44154;45.506;-122.806;2023-03-21T12:21:29;100080.72;;;24.45;34.61
50854;BME280;44154;45.506;-122.806;2023-03-21T12:24:24;100073.88;;;24.32;34.64
50854;BME280;44154;45.506;-122.806;2023-03-21T12:41:15;100050.94;;;24.94;34.25
50854;BME280;44154;45.506;-122.806;2023-03-21T12:43:50;100048.75;;;24.91;34.32
50854;BME280;44154;45.506;-122.806;2023-03-21T12:47:28;100054.78;;;24.78;34.27
50854;BME280;44154;45.506;-122.806;2023-03-21T12:49:41;100049.56;;;24.71;34.43
50854;BME280;44154;45.506;-122.806;2023-03-21T12:52:16;100048.19;;;24.69;34.93
50854;BME280;44154;45.506;-122.806;2023-03-21T12:54:53;100042.72;;;24.84;34.33
50854;BME280;44154;45.506;-122.806;2023-03-21T12:57:46;100046.50;;;25.19;33.99
50854;BME280;44154;45.506;-122.806;2023-03-21T13:02:53;100039.00;;;25.61;33.24
50854;BME280;44154;45.506;-122.806;2023-03-21T13:05:46;100043.16;;;25.53;33.14
50854;BME280;44154;45.506;-122.806;2023-03-21T13:10:46;100047.59;;;25.23;33.50
50854;BME280;44154;45.506;-122.806;2023-03-21T13:24:49;100035.59;;;24.99;34.04
50854;BME280;44154;45.506;-122.806;2023-03-21T13:27:29;100039.41;;;25.18;33.72
50854;BME280;44154;45.506;-122.806;2023-03-21T13:30:16;100038.53;;;25.49;33.40
50854;BME280;44154;45.506;-122.806;2023-03-21T13:32:45;100044.19;;;25.62;32.96
50854;BME280;44154;45.506;-122.806;2023-03-21T13:35:15;100035.47;;;25.55;33.05
50854;BME280;44154;45.506;-122.806;2023-03-21T13:37:48;100036.34;;;25.45;32.91
50854;BME280;44154;45.506;-122.806;2023-03-21T13:40:22;100025.97;;;25.32;33.22
50854;BME280;44154;45.506;-122.806;2023-03-21T13:42:55;100035.81;;;25.18;33.52
50854;BME280;44154;45.506;-122.806;2023-03-21T13:45:27;100028.72;;;25.06;33.45